Time,TemperatureF,DewpointF,PressureIn,WindDirection,WindDirectionDegrees,WindSpeedMPH,WindSpeedGustMPH,Humidity,HourlyPrecipIn,Conditions,Clouds,dailyrainin,SoftwareType,DateUTC
2013-03-31 00:00:00,65.8,57.7,-100.00,SSW,203,2.0,3.0,75,0.00,,,0.00,meteohub,2013-03-31 05:00:00,
2013-03-31 00:02:00,66.0,57.9,-100.00,SE,135,4.0,4.0,75,0.00,,,0.00,meteohub,2013-03-31 05:02:00,
2013-03-31 00:06:00,66.4,58.3,-100.00,South,180,0.0,4.0,75,0.00,,,0.00,meteohub,2013-03-31 05:06:00,
2013-03-31 00:08:00,66.6,58.8,-100.00,ESE,113,3.0,4.0,76,0.00,,,0.00,meteohub,2013-03-31 05:08:00,
2013-03-31 00:12:00,66.7,59.0,-100.00,SW,225,1.0,4.0,76,0.00,,,0.00,meteohub,2013-03-31 05:12:00,
2013-03-31 00:14:00,66.7,59.0,-100.00,SW,225,1.0,4.0,76,0.00,,,0.00,meteohub,2013-03-31 05:14:00,
2013-03-31 00:18:00,66.9,59.2,-100.00,SSW,203,4.0,4.0,76,0.00,,,0.00,meteohub,2013-03-31 05:18:00,
2013-03-31 00:20:00,66.9,59.2,-100.00,SW,225,6.0,6.0,76,0.00,,,0.00,meteohub,2013-03-31 05:20:00,
2013-03-31 00:24:00,67.1,59.7,-100.00,South,180,3.0,6.0,77,0.00,,,0.00,meteohub,2013-03-31 05:24:00,
2013-03-31 00:26:00,67.1,59.7,-100.00,ENE,68,0.0,6.0,77,0.00,,,0.00,meteohub,2013-03-31 05:26:00,
2013-03-31 00:30:00,67.1,59.7,-100.00,NNE,23,2.0,6.0,77,0.00,,,0.00,meteohub,2013-03-31 05:30:00,
2013-03-31 00:32:00,67.1,59.7,-100.00,SE,135,0.0,6.0,77,0.00,,,0.00,meteohub,2013-03-31 05:32:00,
2013-03-31 00:34:00,67.1,59.7,-100.00,SE,135,0.0,6.0,77,0.00,,,0.00,meteohub,2013-03-31 05:34:00,
2013-03-31 00:36:00,67.1,59.7,-100.00,ESE,113,6.0,6.0,77,0.00,,,0.00,meteohub,2013-03-31 05:36:00,
2013-03-31 00:38:00,67.1,59.7,-100.00,SSW,203,3.0,6.0,77,0.00,,,0.00,meteohub,2013-03-31 05:38:00,
2013-03-31 00:42:00,66.9,59.5,-100.00,ENE,68,3.0,6.0,77,0.00,,,0.00,meteohub,2013-03-31 05:42:00,
2013-03-31 00:44:00,66.9,59.5,-100.00,SW,225,3.0,6.0,77,0.00,,,0.00,meteohub,2013-03-31 05:44:00,
2013-03-31 00:47:00,66.9,59.9,-100.00,SW,225,3.0,6.0,78,0.00,,,0.00,meteohub,2013-03-31 05:47:00,
2013-03-31 00:49:00,66.9,59.9,-100.00,South,180,2.0,6.0,78,0.00,,,0.00,meteohub,2013-03-31 05:49:00,
2013-03-31 00:51:00,66.9,59.9,-100.00,East,90,0.0,6.0,78,0.00,,,0.00,meteohub,2013-03-31 05:51:00,
2013-03-31 00:55:00,66.7,59.7,-100.00,SSW,203,4.0,6.0,78,0.00,,,0.00,meteohub,2013-03-31 05:55:00,
2013-03-31 00:57:00,66.7,59.7,-100.00,SSW,203,1.0,4.0,78,0.00,,,0.00,meteohub,2013-03-31 05:57:00,
2013-03-31 01:01:00,66.7,59.7,-100.00,SSW,203,1.0,4.0,78,0.00,,,0.00,meteohub,2013-03-31 06:01:00,
2013-03-31 01:02:00,66.7,59.7,-100.00,SE,135,0.0,4.0,78,0.00,,,0.00,meteohub,2013-03-31 06:02:00,
2013-03-31 01:03:00,66.7,59.7,-100.00,SE,135,0.0,4.0,78,0.00,,,0.00,meteohub,2013-03-31 06:03:00,
2013-03-31 01:05:00,66.7,59.7,-100.00,SSW,203,0.0,4.0,78,0.00,,,0.00,meteohub,2013-03-31 06:05:00,
2013-03-31 01:09:00,66.6,59.9,-100.00,SE,135,2.0,4.0,79,0.00,,,0.00,meteohub,2013-03-31 06:09:00,
2013-03-31 01:11:00,66.6,59.9,-100.00,South,180,1.0,1.0,79,0.00,,,0.00,meteohub,2013-03-31 06:11:00,
2013-03-31 01:17:00,66.4,59.7,-100.00,SSW,203,0.0,2.0,79,0.00,,,0.00,meteohub,2013-03-31 06:17:00,
2013-03-31 01:23:00,66.2,59.9,-100.00,SSW,203,0.0,2.0,80,0.00,,,0.00,meteohub,2013-03-31 06:23:00,
2013-03-31 01:25:00,66.2,59.9,-100.00,SSW,203,0.0,2.0,80,0.00,,,0.00,meteohub,2013-03-31 06:25:00,
2013-03-31 01:27:00,66.2,59.9,-100.00,SSW,203,0.0,2.0,80,0.00,,,0.00,meteohub,2013-03-31 06:27:00,
2013-03-31 01:31:00,66.0,59.7,-100.00,South,180,3.0,3.0,80,0.00,,,0.00,meteohub,2013-03-31 06:31:00,
2013-03-31 01:35:00,66.0,60.1,-100.00,SSW,203,1.0,4.0,81,0.00,,,0.00,meteohub,2013-03-31 06:35:00,
2013-03-31 01:37:00,66.0,60.1,-100.00,SSW,203,4.0,4.0,81,0.00,,,0.00,meteohub,2013-03-31 06:37:00,
2013-03-31 01:39:00,66.0,60.1,-100.00,NE,45,0.0,4.0,81,0.00,,,0.00,meteohub,2013-03-31 06:39:00,
2013-03-31 01:44:00,66.0,60.1,-100.00,WSW,248,1.0,4.0,81,0.00,,,0.00,meteohub,2013-03-31 06:44:00,
2013-03-31 01:46:00,66.0,60.1,-100.00,South,180,0.0,4.0,81,0.00,,,0.00,meteohub,2013-03-31 06:46:00,
2013-03-31 01:47:00,66.0,60.1,-100.00,South,180,0.0,4.0,81,0.00,,,0.00,meteohub,2013-03-31 06:47:00,
2013-03-31 01:52:00,65.8,59.9,-100.00,SSW,203,0.0,4.0,81,0.00,,,0.00,meteohub,2013-03-31 06:52:00,
2013-03-31 01:54:00,65.8,59.9,-100.00,SE,135,3.0,4.0,81,0.00,,,0.00,meteohub,2013-03-31 06:54:00,
2013-03-31 01:58:00,65.8,60.3,-100.00,SW,225,2.0,2.0,82,0.00,,,0.00,meteohub,2013-03-31 06:58:00,
2013-03-31 02:00:00,65.8,60.3,-100.00,SW,225,2.0,2.0,82,0.00,,,0.00,meteohub,2013-03-31 07:00:00,
2013-03-31 02:02:00,65.8,60.3,-100.00,SW,225,2.0,3.0,82,0.00,,,0.00,meteohub,2013-03-31 07:02:00,
2013-03-31 02:08:00,65.8,60.3,-100.00,SW,225,2.0,3.0,82,0.00,,,0.00,meteohub,2013-03-31 07:08:00,
2013-03-31 02:10:00,65.7,60.1,-100.00,SW,225,1.0,3.0,82,0.00,,,0.00,meteohub,2013-03-31 07:10:00,
2013-03-31 02:12:00,65.7,60.1,-100.00,SW,225,0.0,2.0,82,0.00,,,0.00,meteohub,2013-03-31 07:12:00,
2013-03-31 02:17:00,65.5,60.3,-100.00,South,180,0.0,2.0,83,0.00,,,0.00,meteohub,2013-03-31 07:17:00,
2013-03-31 02:18:00,65.5,60.3,-100.00,South,180,0.0,2.0,83,0.00,,,0.00,meteohub,2013-03-31 07:18:00,
2013-03-31 02:22:00,65.5,60.3,-100.00,ESE,113,0.0,2.0,83,0.00,,,0.00,meteohub,2013-03-31 07:22:00,
2013-03-31 02:24:00,65.3,60.1,-100.00,South,180,3.0,3.0,83,0.00,,,0.00,meteohub,2013-03-31 07:24:00,
2013-03-31 02:27:00,65.3,60.1,-100.00,South,180,0.0,2.0,83,0.00,,,0.00,meteohub,2013-03-31 07:27:00,
2013-03-31 02:29:00,65.3,60.1,-100.00,SW,225,0.0,2.0,83,0.00,,,0.00,meteohub,2013-03-31 07:29:00,
2013-03-31 02:31:00,65.3,60.1,-100.00,SSW,203,0.0,3.0,83,0.00,,,0.00,meteohub,2013-03-31 07:31:00,
2013-03-31 02:37:00,65.3,60.1,-100.00,SW,225,2.0,3.0,83,0.00,,,0.00,meteohub,2013-03-31 07:37:00,
2013-03-31 02:39:00,65.3,60.1,-100.00,SSW,203,0.0,3.0,83,0.00,,,0.00,meteohub,2013-03-31 07:39:00,
2013-03-31 02:41:00,65.3,60.1,-100.00,ESE,113,0.0,2.0,83,0.00,,,0.00,meteohub,2013-03-31 07:41:00,
2013-03-31 02:43:00,65.3,60.1,-100.00,SSW,203,1.0,2.0,83,0.00,,,0.00,meteohub,2013-03-31 07:43:00,
2013-03-31 02:47:00,65.3,60.3,-100.00,SSW,203,2.0,2.0,84,0.00,,,0.00,meteohub,2013-03-31 07:47:00,
2013-03-31 02:52:00,65.3,60.3,-100.00,SE,135,0.0,2.0,84,0.00,,,0.00,meteohub,2013-03-31 07:52:00,
2013-03-31 02:54:00,65.3,60.3,-100.00,South,180,0.0,2.0,84,0.00,,,0.00,meteohub,2013-03-31 07:54:00,
2013-03-31 02:56:00,65.3,60.3,-100.00,ESE,113,0.0,2.0,84,0.00,,,0.00,meteohub,2013-03-31 07:56:00,
2013-03-31 03:00:00,65.3,60.3,-100.00,SSW,203,3.0,3.0,84,0.00,,,0.00,meteohub,2013-03-31 08:00:00,
2013-03-31 03:02:00,65.3,60.3,-100.00,SSW,203,3.0,3.0,84,0.00,,,0.00,meteohub,2013-03-31 08:02:00,
2013-03-31 03:04:00,65.3,60.3,-100.00,SSE,158,1.0,2.0,84,0.00,,,0.00,meteohub,2013-03-31 08:04:00,
2013-03-31 03:10:00,65.5,60.8,-100.00,SE,135,4.0,4.0,85,0.00,,,0.00,meteohub,2013-03-31 08:10:00,
2013-03-31 03:12:00,65.5,60.8,-100.00,SSW,203,2.0,3.0,85,0.00,,,0.00,meteohub,2013-03-31 08:12:00,
2013-03-31 03:14:00,65.5,60.8,-100.00,SSW,203,3.0,3.0,85,0.00,,,0.00,meteohub,2013-03-31 08:14:00,
2013-03-31 03:17:00,65.5,60.8,-100.00,ESE,113,0.0,4.0,85,0.00,,,0.00,meteohub,2013-03-31 08:17:00,
2013-03-31 03:18:00,65.5,60.8,-100.00,ESE,113,0.0,4.0,85,0.00,,,0.00,meteohub,2013-03-31 08:18:00,
2013-03-31 03:24:00,65.5,60.8,-100.00,South,180,1.0,4.0,85,0.00,,,0.00,meteohub,2013-03-31 08:24:00,
2013-03-31 03:26:00,65.7,61.0,-100.00,South,180,5.0,5.0,85,0.00,,,0.00,meteohub,2013-03-31 08:26:00,
2013-03-31 03:30:00,65.7,61.0,-100.00,SW,225,3.0,3.0,85,0.00,,,0.00,meteohub,2013-03-31 08:30:00,
2013-03-31 03:32:00,65.7,61.0,-100.00,SW,225,3.0,5.0,85,0.00,,,0.00,meteohub,2013-03-31 08:32:00,
2013-03-31 03:38:00,65.8,61.2,-100.00,South,180,2.0,5.0,85,0.00,,,0.00,meteohub,2013-03-31 08:38:00,
2013-03-31 03:44:00,65.8,61.2,-100.00,SSE,158,1.0,5.0,85,0.00,,,0.00,meteohub,2013-03-31 08:44:00,
2013-03-31 03:47:00,65.8,61.2,-100.00,WSW,248,2.0,3.0,85,0.00,,,0.00,meteohub,2013-03-31 08:47:00,
2013-03-31 03:50:00,65.8,61.2,-100.00,SSE,158,3.0,6.0,85,0.00,,,0.00,meteohub,2013-03-31 08:50:00,
2013-03-31 03:52:00,65.8,61.2,-100.00,SSW,203,3.0,6.0,85,0.00,,,0.00,meteohub,2013-03-31 08:52:00,
2013-03-31 03:56:00,65.8,61.2,-100.00,SW,225,4.0,6.0,85,0.00,,,0.00,meteohub,2013-03-31 08:56:00,
2013-03-31 03:58:00,66.0,61.3,-100.00,East,90,3.0,6.0,85,0.00,,,0.00,meteohub,2013-03-31 08:58:00,
2013-03-31 04:00:00,66.0,61.3,-100.00,West,270,0.0,6.0,85,0.00,,,0.00,meteohub,2013-03-31 09:00:00,
2013-03-31 04:02:00,66.0,61.3,-100.00,West,270,0.0,6.0,85,0.00,,,0.00,meteohub,2013-03-31 09:02:00,
2013-03-31 04:06:00,66.0,61.3,-100.00,South,180,4.0,4.0,85,0.00,,,0.00,meteohub,2013-03-31 09:06:00,
2013-03-31 04:08:00,66.0,61.3,-100.00,South,180,0.0,4.0,85,0.00,,,0.00,meteohub,2013-03-31 09:08:00,
2013-03-31 04:12:00,66.0,61.3,-100.00,SSW,203,4.0,4.0,85,0.00,,,0.00,meteohub,2013-03-31 09:12:00,
2013-03-31 04:14:00,66.0,61.3,-100.00,SE,135,4.0,4.0,85,0.00,,,0.00,meteohub,2013-03-31 09:14:00,
2013-03-31 04:16:00,66.0,61.3,-100.00,SSW,203,0.0,4.0,85,0.00,,,0.00,meteohub,2013-03-31 09:16:00,
2013-03-31 04:18:00,66.0,61.3,-100.00,SSE,158,0.0,4.0,85,0.00,,,0.00,meteohub,2013-03-31 09:18:00,
2013-03-31 04:22:00,66.0,61.3,-100.00,SSW,203,0.0,4.0,85,0.00,,,0.00,meteohub,2013-03-31 09:22:00,
2013-03-31 04:24:00,66.0,61.3,-100.00,SW,225,1.0,4.0,85,0.00,,,0.00,meteohub,2013-03-31 09:24:00,
2013-03-31 04:28:00,66.0,61.3,-100.00,SSE,158,0.0,4.0,85,0.00,,,0.00,meteohub,2013-03-31 09:28:00,
2013-03-31 04:30:00,66.2,61.5,-100.00,SW,225,1.0,1.0,85,0.00,,,0.00,meteohub,2013-03-31 09:30:00,
2013-03-31 04:32:00,66.2,61.5,-100.00,SW,225,1.0,1.0,85,0.00,,,0.00,meteohub,2013-03-31 09:32:00,
2013-03-31 04:34:00,66.0,61.3,-100.00,South,180,0.0,1.0,85,0.00,,,0.00,meteohub,2013-03-31 09:34:00,
2013-03-31 04:38:00,66.0,61.3,-100.00,SSW,203,3.0,4.0,85,0.00,,,0.00,meteohub,2013-03-31 09:38:00,
2013-03-31 04:40:00,66.0,61.3,-100.00,South,180,0.0,4.0,85,0.00,,,0.00,meteohub,2013-03-31 09:40:00,
2013-03-31 04:42:00,66.2,61.5,-100.00,SSE,158,2.0,4.0,85,0.00,,,0.00,meteohub,2013-03-31 09:42:00,
2013-03-31 04:48:00,66.2,61.5,-100.00,North,0,0.0,4.0,85,0.00,,,0.00,meteohub,2013-03-31 09:48:00,
2013-03-31 04:50:00,66.2,61.5,-100.00,South,180,0.0,3.0,85,0.00,,,0.00,meteohub,2013-03-31 09:50:00,
2013-03-31 04:54:00,66.2,61.5,-100.00,WSW,248,0.0,3.0,85,0.00,,,0.00,meteohub,2013-03-31 09:54:00,
2013-03-31 04:56:00,66.2,61.5,-100.00,SSE,158,0.0,2.0,85,0.00,,,0.00,meteohub,2013-03-31 09:56:00,
2013-03-31 05:00:00,66.2,61.5,-100.00,SSW,203,2.0,2.0,85,0.00,,,0.00,meteohub,2013-03-31 10:00:00,
2013-03-31 05:02:00,66.2,61.5,-100.00,SSW,203,2.0,2.0,85,0.00,,,0.00,meteohub,2013-03-31 10:02:00,
2013-03-31 05:07:00,66.2,61.5,-100.00,South,180,3.0,3.0,85,0.00,,,0.00,meteohub,2013-03-31 10:07:00,
2013-03-31 05:09:00,66.2,61.9,-100.00,SW,225,2.0,2.0,86,0.00,,,0.00,meteohub,2013-03-31 10:09:00,
2013-03-31 05:15:00,66.2,61.5,-100.00,South,180,2.0,3.0,85,0.00,,,0.00,meteohub,2013-03-31 10:15:00,
2013-03-31 05:17:00,66.2,61.5,-100.00,South,180,2.0,3.0,85,0.00,,,0.00,meteohub,2013-03-31 10:17:00,
2013-03-31 05:23:00,66.2,61.9,-100.00,SSW,203,0.0,3.0,86,0.00,,,0.00,meteohub,2013-03-31 10:23:00,
2013-03-31 05:25:00,66.2,61.9,-100.00,SW,225,0.0,2.0,86,0.00,,,0.00,meteohub,2013-03-31 10:25:00,
2013-03-31 05:27:00,66.2,61.9,-100.00,SW,225,0.0,2.0,86,0.00,,,0.00,meteohub,2013-03-31 10:27:00,
2013-03-31 05:29:00,66.2,61.9,-100.00,WSW,248,0.0,2.0,86,0.00,,,0.00,meteohub,2013-03-31 10:29:00,
2013-03-31 05:33:00,66.2,61.9,-100.00,NE,45,1.0,2.0,86,0.00,,,0.00,meteohub,2013-03-31 10:33:00,
2013-03-31 05:35:00,66.2,61.9,-100.00,South,180,1.0,2.0,86,0.00,,,0.00,meteohub,2013-03-31 10:35:00,
2013-03-31 05:37:00,66.2,61.9,-100.00,SSW,203,2.0,2.0,86,0.00,,,0.00,meteohub,2013-03-31 10:37:00,
2013-03-31 05:39:00,66.2,61.9,-100.00,SSE,158,3.0,3.0,86,0.00,,,0.00,meteohub,2013-03-31 10:39:00,
2013-03-31 05:41:00,66.4,62.1,-100.00,South,180,2.0,3.0,86,0.00,,,0.00,meteohub,2013-03-31 10:41:00,
2013-03-31 05:43:00,66.2,61.9,-100.00,South,180,1.0,3.0,86,0.00,,,0.00,meteohub,2013-03-31 10:43:00,
2013-03-31 05:45:00,66.2,61.9,-100.00,West,270,0.0,3.0,86,0.00,,,0.00,meteohub,2013-03-31 10:45:00,
2013-03-31 05:51:00,66.2,61.5,-100.00,SSE,158,0.0,3.0,85,0.00,,,0.00,meteohub,2013-03-31 10:51:00,
2013-03-31 05:55:00,66.4,61.7,-100.00,South,180,1.0,3.0,85,0.00,,,0.00,meteohub,2013-03-31 10:55:00,
2013-03-31 05:59:00,66.4,61.7,-100.00,West,270,2.0,3.0,85,0.00,,,0.00,meteohub,2013-03-31 10:59:00,
2013-03-31 06:01:00,66.4,61.7,-100.00,WNW,293,0.0,2.0,85,0.00,,,0.00,meteohub,2013-03-31 11:01:00,
2013-03-31 06:05:00,66.4,61.7,-100.00,SSW,203,2.0,2.0,85,0.00,,,0.00,meteohub,2013-03-31 11:05:00,
2013-03-31 06:07:00,66.4,61.7,-100.00,WSW,248,0.0,2.0,85,0.00,,,0.00,meteohub,2013-03-31 11:07:00,
2013-03-31 06:09:00,66.4,61.7,-100.00,SSW,203,2.0,2.0,85,0.00,,,0.00,meteohub,2013-03-31 11:09:00,
2013-03-31 06:16:00,66.4,61.7,-100.00,South,180,3.0,3.0,85,0.00,,,0.00,meteohub,2013-03-31 11:16:00,
2013-03-31 06:17:00,66.4,61.7,-100.00,South,180,3.0,3.0,85,0.00,,,0.00,meteohub,2013-03-31 11:17:00,
2013-03-31 06:18:00,66.2,61.5,-100.00,SE,135,0.0,2.0,85,0.00,,,0.00,meteohub,2013-03-31 11:18:00,
2013-03-31 06:22:00,66.2,61.5,-100.00,SSW,203,0.0,3.0,85,0.00,,,0.00,meteohub,2013-03-31 11:22:00,
2013-03-31 06:24:00,66.2,61.5,-100.00,SE,135,1.0,3.0,85,0.00,,,0.00,meteohub,2013-03-31 11:24:00,
2013-03-31 06:28:00,66.2,61.5,-100.00,SW,225,2.0,3.0,85,0.00,,,0.00,meteohub,2013-03-31 11:28:00,
2013-03-31 06:30:00,66.2,61.5,-100.00,NNW,338,0.0,3.0,85,0.00,,,0.00,meteohub,2013-03-31 11:30:00,
2013-03-31 06:32:00,66.2,61.5,-100.00,NNW,338,0.0,3.0,85,0.00,,,0.00,meteohub,2013-03-31 11:32:00,
2013-03-31 06:34:00,66.2,61.5,-100.00,SE,135,2.0,3.0,85,0.00,,,0.00,meteohub,2013-03-31 11:34:00,
2013-03-31 06:36:00,66.2,61.5,-100.00,South,180,1.0,2.0,85,0.00,,,0.00,meteohub,2013-03-31 11:36:00,
2013-03-31 06:42:00,66.0,61.3,-100.00,SSW,203,0.0,2.0,85,0.00,,,0.00,meteohub,2013-03-31 11:42:00,
2013-03-31 06:44:00,66.0,61.3,-100.00,South,180,1.0,2.0,85,0.00,,,0.00,meteohub,2013-03-31 11:44:00,
2013-03-31 06:46:00,66.0,61.3,-100.00,NNW,338,0.0,2.0,85,0.00,,,0.00,meteohub,2013-03-31 11:46:00,
2013-03-31 06:47:00,66.0,61.3,-100.00,NNW,338,0.0,2.0,85,0.00,,,0.00,meteohub,2013-03-31 11:47:00,
2013-03-31 06:48:00,66.0,61.3,-100.00,WSW,248,3.0,3.0,85,0.00,,,0.00,meteohub,2013-03-31 11:48:00,
2013-03-31 06:52:00,66.0,61.3,-100.00,South,180,0.0,3.0,85,0.00,,,0.00,meteohub,2013-03-31 11:52:00,
2013-03-31 06:56:00,66.0,61.3,-100.00,WNW,293,0.0,3.0,85,0.00,,,0.00,meteohub,2013-03-31 11:56:00,
2013-03-31 07:02:00,66.0,61.3,-100.00,WSW,248,0.0,3.0,85,0.00,,,0.00,meteohub,2013-03-31 12:02:00,
2013-03-31 07:07:00,66.0,61.3,-100.00,SSE,158,0.0,2.0,85,0.00,,,0.00,meteohub,2013-03-31 12:07:00,
2013-03-31 07:09:00,66.0,61.3,-100.00,NNW,338,0.0,2.0,85,0.00,,,0.00,meteohub,2013-03-31 12:09:00,
2013-03-31 07:13:00,65.8,61.2,-100.00,ENE,68,0.0,2.0,85,0.00,,,0.00,meteohub,2013-03-31 12:13:00,
2013-03-31 07:15:00,65.8,61.2,-100.00,ENE,68,0.0,2.0,85,0.00,,,0.00,meteohub,2013-03-31 12:15:00,
2013-03-31 07:17:00,65.8,61.2,-100.00,South,180,0.0,1.0,85,0.00,,,0.00,meteohub,2013-03-31 12:17:00,
2013-03-31 07:23:00,65.7,61.0,-100.00,South,180,0.0,2.0,85,0.00,,,0.00,meteohub,2013-03-31 12:23:00,
2013-03-31 07:25:00,65.7,61.0,-100.00,South,180,0.0,2.0,85,0.00,,,0.00,meteohub,2013-03-31 12:25:00,
2013-03-31 07:32:00,65.5,60.8,-100.00,SSW,203,0.0,2.0,85,0.00,,,0.00,meteohub,2013-03-31 12:32:00,
2013-03-31 07:34:00,65.5,60.8,-100.00,SSW,203,0.0,2.0,85,0.00,,,0.00,meteohub,2013-03-31 12:34:00,
2013-03-31 07:38:00,65.5,60.8,-100.00,SSW,203,0.0,0.0,85,0.00,,,0.00,meteohub,2013-03-31 12:38:00,
2013-03-31 07:40:00,65.5,60.8,-100.00,SSW,203,0.0,0.0,85,0.00,,,0.00,meteohub,2013-03-31 12:40:00,
2013-03-31 07:42:00,65.3,60.6,-100.00,South,180,0.0,0.0,85,0.00,,,0.00,meteohub,2013-03-31 12:42:00,
2013-03-31 07:46:00,65.1,60.4,-100.00,SSE,158,0.0,0.0,85,0.00,,,0.00,meteohub,2013-03-31 12:46:00,
2013-03-31 07:48:00,65.3,60.6,-100.00,SSE,158,0.0,0.0,85,0.00,,,0.00,meteohub,2013-03-31 12:48:00,
2013-03-31 07:50:00,65.3,60.6,-100.00,South,180,0.0,0.0,85,0.00,,,0.00,meteohub,2013-03-31 12:50:00,
2013-03-31 07:54:00,65.3,60.6,-100.00,SE,135,0.0,0.0,85,0.00,,,0.00,meteohub,2013-03-31 12:54:00,
2013-03-31 07:56:00,65.3,60.6,-100.00,SSW,203,1.0,0.0,85,0.00,,,0.00,meteohub,2013-03-31 12:56:00,
2013-03-31 08:02:00,65.1,60.8,-100.00,SSW,203,2.0,2.0,86,0.00,,,0.00,meteohub,2013-03-31 13:02:00,
2013-03-31 08:04:00,65.1,60.8,-100.00,SSW,203,0.0,2.0,86,0.00,,,0.00,meteohub,2013-03-31 13:04:00,
2013-03-31 08:08:00,65.3,61.0,-100.00,SSW,203,0.0,2.0,86,0.00,,,0.00,meteohub,2013-03-31 13:08:00,
2013-03-31 08:12:00,65.3,61.0,-100.00,South,180,0.0,2.0,86,0.00,,,0.00,meteohub,2013-03-31 13:12:00,
2013-03-31 08:17:00,65.3,61.0,-100.00,SSE,158,0.0,2.0,86,0.00,,,0.00,meteohub,2013-03-31 13:17:00,
2013-03-31 08:19:00,65.3,61.0,-100.00,South,180,0.0,2.0,86,0.00,,,0.00,meteohub,2013-03-31 13:19:00,
2013-03-31 08:21:00,65.3,61.0,-100.00,SSW,203,0.0,0.0,86,0.00,,,0.00,meteohub,2013-03-31 13:21:00,
2013-03-31 08:25:00,65.3,61.0,-100.00,West,270,0.0,0.0,86,0.00,,,0.00,meteohub,2013-03-31 13:25:00,
2013-03-31 08:27:00,65.3,61.0,-100.00,WSW,248,0.0,0.0,86,0.00,,,0.00,meteohub,2013-03-31 13:27:00,
2013-03-31 08:33:00,65.5,61.2,-100.00,South,180,2.0,0.0,86,0.00,,,0.00,meteohub,2013-03-31 13:33:00,
2013-03-31 08:35:00,65.5,61.2,-100.00,South,180,0.0,2.0,86,0.00,,,0.00,meteohub,2013-03-31 13:35:00,
2013-03-31 08:37:00,65.5,61.2,-100.00,SW,225,0.0,2.0,86,0.00,,,0.00,meteohub,2013-03-31 13:37:00,
2013-03-31 08:41:00,65.7,61.3,-100.00,SW,225,2.0,2.0,86,0.00,,,0.00,meteohub,2013-03-31 13:41:00,
2013-03-31 08:43:00,65.7,61.3,-100.00,WNW,293,0.0,2.0,86,0.00,,,0.00,meteohub,2013-03-31 13:43:00,
2013-03-31 08:45:00,65.8,61.5,-100.00,South,180,1.0,2.0,86,0.00,,,0.00,meteohub,2013-03-31 13:45:00,
2013-03-31 08:47:00,65.8,61.5,-100.00,South,180,1.0,2.0,86,0.00,,,0.00,meteohub,2013-03-31 13:47:00,
2013-03-31 08:52:00,65.8,61.5,-100.00,SSW,203,0.0,2.0,86,0.00,,,0.00,meteohub,2013-03-31 13:52:00,
2013-03-31 08:54:00,65.8,61.5,-100.00,West,270,0.0,2.0,86,0.00,,,0.00,meteohub,2013-03-31 13:54:00,
2013-03-31 08:58:00,66.0,61.7,-100.00,ESE,113,2.0,2.0,86,0.00,,,0.00,meteohub,2013-03-31 13:58:00,
2013-03-31 09:02:00,66.0,61.7,-100.00,West,270,0.0,2.0,86,0.00,,,0.00,meteohub,2013-03-31 14:02:00,
2013-03-31 09:04:00,66.0,61.3,-100.00,South,180,0.0,2.0,85,0.00,,,0.00,meteohub,2013-03-31 14:04:00,
2013-03-31 09:06:00,66.0,61.3,-100.00,West,270,0.0,2.0,85,0.00,,,0.00,meteohub,2013-03-31 14:06:00,
2013-03-31 09:08:00,66.2,61.5,-100.00,WNW,293,0.0,2.0,85,0.00,,,0.00,meteohub,2013-03-31 14:08:00,
2013-03-31 09:12:00,66.2,61.5,-100.00,WNW,293,0.0,2.0,85,0.00,,,0.00,meteohub,2013-03-31 14:12:00,
2013-03-31 09:14:00,66.4,61.7,-100.00,WNW,293,0.0,2.0,85,0.00,,,0.00,meteohub,2013-03-31 14:14:00,
2013-03-31 09:16:00,66.4,61.7,-100.00,South,180,0.0,0.0,85,0.00,,,0.00,meteohub,2013-03-31 14:16:00,
2013-03-31 09:17:00,66.4,61.7,-100.00,South,180,0.0,0.0,85,0.00,,,0.00,meteohub,2013-03-31 14:17:00,
2013-03-31 09:22:00,66.4,61.7,-100.00,East,90,2.0,0.0,85,0.00,,,0.00,meteohub,2013-03-31 14:22:00,
2013-03-31 09:24:00,66.2,61.5,-100.00,ENE,68,0.0,0.0,85,0.00,,,0.00,meteohub,2013-03-31 14:24:00,
2013-03-31 09:26:00,66.2,61.5,-100.00,SE,135,0.0,2.0,85,0.00,,,0.00,meteohub,2013-03-31 14:26:00,
2013-03-31 09:32:00,66.2,61.5,-100.00,South,180,0.0,2.0,85,0.00,,,0.00,meteohub,2013-03-31 14:32:00,
2013-03-31 09:34:00,66.4,61.7,-100.00,ENE,68,2.0,2.0,85,0.00,,,0.00,meteohub,2013-03-31 14:34:00,
2013-03-31 09:38:00,66.7,62.1,-100.00,SW,225,3.0,3.0,85,0.00,,,0.00,meteohub,2013-03-31 14:38:00,
2013-03-31 09:42:00,67.3,62.6,-100.00,West,270,0.0,3.0,85,0.00,,,0.00,meteohub,2013-03-31 14:42:00,
2013-03-31 09:47:00,67.8,62.8,-100.00,South,180,0.0,3.0,84,0.00,,,0.00,meteohub,2013-03-31 14:47:00,
2013-03-31 09:48:00,68.0,62.6,-100.00,West,270,1.0,3.0,83,0.00,,,0.00,meteohub,2013-03-31 14:48:00,
2013-03-31 09:52:00,68.2,62.4,-100.00,SE,135,1.0,3.0,82,0.00,,,0.00,meteohub,2013-03-31 14:52:00,
2013-03-31 09:54:00,68.2,62.4,-100.00,East,90,1.0,3.0,82,0.00,,,0.00,meteohub,2013-03-31 14:54:00,
2013-03-31 09:56:00,68.2,62.1,-100.00,SSE,158,0.0,2.0,81,0.00,,,0.00,meteohub,2013-03-31 14:56:00,
2013-03-31 09:58:00,68.4,62.2,-100.00,SE,135,0.0,2.0,81,0.00,,,0.00,meteohub,2013-03-31 14:58:00,
2013-03-31 10:02:00,68.4,62.2,-100.00,SSE,158,0.0,2.0,81,0.00,,,0.00,meteohub,2013-03-31 15:02:00,
2013-03-31 10:08:00,68.7,62.6,-100.00,SSW,203,4.0,4.0,81,0.00,,,0.00,meteohub,2013-03-31 15:08:00,
2013-03-31 10:13:00,68.9,62.8,-100.00,ESE,113,1.0,1.0,81,0.00,,,0.00,meteohub,2013-03-31 15:13:00,
2013-03-31 10:15:00,69.1,62.6,-100.00,ESE,113,1.0,1.0,80,0.00,,,0.00,meteohub,2013-03-31 15:15:00,
2013-03-31 10:17:00,69.1,62.6,-100.00,SSW,203,0.0,4.0,80,0.00,,,0.00,meteohub,2013-03-31 15:17:00,
2013-03-31 10:23:00,69.6,62.8,-100.00,SSW,203,1.0,4.0,79,0.00,,,0.00,meteohub,2013-03-31 15:23:00,
2013-03-31 10:25:00,70.2,63.0,-100.00,SSE,158,2.0,4.0,78,0.00,,,0.00,meteohub,2013-03-31 15:25:00,
2013-03-31 10:27:00,70.2,63.0,-100.00,South,180,1.0,4.0,78,0.00,,,0.00,meteohub,2013-03-31 15:27:00,
2013-03-31 10:29:00,70.3,63.1,-100.00,SW,225,3.0,4.0,78,0.00,,,0.00,meteohub,2013-03-31 15:29:00,
2013-03-31 10:31:00,70.3,62.8,-100.00,SW,225,3.0,3.0,77,0.00,,,0.00,meteohub,2013-03-31 15:31:00,
2013-03-31 10:32:00,70.3,62.8,-100.00,SW,225,3.0,3.0,77,0.00,,,0.00,meteohub,2013-03-31 15:32:00,
2013-03-31 10:35:00,70.3,62.8,-100.00,South,180,1.0,3.0,77,0.00,,,0.00,meteohub,2013-03-31 15:35:00,
2013-03-31 10:37:00,70.5,62.6,-100.00,SE,135,2.0,3.0,76,0.00,,,0.00,meteohub,2013-03-31 15:37:00,
2013-03-31 10:43:00,70.7,62.4,-100.00,SSW,203,1.0,3.0,75,0.00,,,0.00,meteohub,2013-03-31 15:43:00,
2013-03-31 10:50:00,71.4,63.1,-100.00,NW,315,0.0,3.0,75,0.00,,,0.00,meteohub,2013-03-31 15:50:00,
2013-03-31 10:52:00,71.8,63.5,-100.00,SSE,158,4.0,4.0,75,0.00,,,0.00,meteohub,2013-03-31 15:52:00,
2013-03-31 10:54:00,72.1,63.3,-100.00,South,180,3.0,3.0,74,0.00,,,0.00,meteohub,2013-03-31 15:54:00,
2013-03-31 10:56:00,72.1,63.3,-100.00,South,180,3.0,4.0,74,0.00,,,0.00,meteohub,2013-03-31 15:56:00,
2013-03-31 11:02:00,72.7,63.5,-100.00,SE,135,2.0,4.0,73,0.00,,,0.00,meteohub,2013-03-31 16:02:00,
2013-03-31 11:04:00,72.9,63.3,-100.00,South,180,3.0,4.0,72,0.00,,,0.00,meteohub,2013-03-31 16:04:00,
2013-03-31 11:10:00,73.2,62.8,-100.00,South,180,2.0,4.0,70,0.00,,,0.00,meteohub,2013-03-31 16:10:00,
2013-03-31 11:12:00,73.2,62.8,-100.00,SSW,203,0.0,4.0,70,0.00,,,0.00,meteohub,2013-03-31 16:12:00,
2013-03-31 11:14:00,73.2,62.8,-100.00,ESE,113,0.0,4.0,70,0.00,,,0.00,meteohub,2013-03-31 16:14:00,
2013-03-31 11:16:00,73.2,62.8,-100.00,West,270,0.0,3.0,70,0.00,,,0.00,meteohub,2013-03-31 16:16:00,
2013-03-31 11:17:00,73.2,62.8,-100.00,West,270,0.0,3.0,70,0.00,,,0.00,meteohub,2013-03-31 16:17:00,
2013-03-31 11:22:00,73.6,63.1,-100.00,SW,225,0.0,3.0,70,0.00,,,0.00,meteohub,2013-03-31 16:22:00,
2013-03-31 11:27:00,73.6,62.4,-100.00,West,270,1.0,4.0,68,0.00,,,0.00,meteohub,2013-03-31 16:27:00,
2013-03-31 11:29:00,73.6,62.4,-100.00,South,180,1.0,4.0,68,0.00,,,0.00,meteohub,2013-03-31 16:29:00,
2013-03-31 11:31:00,73.4,62.2,-100.00,South,180,0.0,4.0,68,0.00,,,0.00,meteohub,2013-03-31 16:31:00,
2013-03-31 11:33:00,73.6,62.4,-100.00,South,180,3.0,4.0,68,0.00,,,0.00,meteohub,2013-03-31 16:33:00,
2013-03-31 11:39:00,73.6,62.4,-100.00,South,180,1.0,4.0,68,0.00,,,0.00,meteohub,2013-03-31 16:39:00,
2013-03-31 11:41:00,73.8,63.0,-100.00,WNW,293,0.0,4.0,69,0.00,,,0.00,meteohub,2013-03-31 16:41:00,
2013-03-31 11:43:00,73.9,63.1,-100.00,South,180,0.0,4.0,69,0.00,,,0.00,meteohub,2013-03-31 16:43:00,
2013-03-31 11:45:00,74.3,63.5,-100.00,SSE,158,2.0,3.0,69,0.00,,,0.00,meteohub,2013-03-31 16:45:00,
2013-03-31 11:49:00,75.4,64.0,-100.00,West,270,2.0,3.0,68,0.00,,,0.00,meteohub,2013-03-31 16:49:00,
2013-03-31 11:53:00,76.5,64.8,-100.00,West,270,0.0,2.0,67,0.00,,,0.00,meteohub,2013-03-31 16:53:00,
2013-03-31 11:55:00,77.0,64.8,-100.00,West,270,0.0,3.0,66,0.00,,,0.00,meteohub,2013-03-31 16:55:00,
2013-03-31 11:59:00,77.5,64.8,-100.00,NW,315,2.0,3.0,65,0.00,,,0.00,meteohub,2013-03-31 16:59:00,
2013-03-31 12:02:00,77.9,64.8,-100.00,SE,135,2.0,3.0,64,0.00,,,0.00,meteohub,2013-03-31 17:02:00,
2013-03-31 12:06:00,78.1,64.4,-100.00,West,270,1.0,3.0,63,0.00,,,0.00,meteohub,2013-03-31 17:06:00,
2013-03-31 12:12:00,78.1,64.0,-100.00,NW,315,2.0,2.0,62,0.00,,,0.00,meteohub,2013-03-31 17:12:00,
2013-03-31 12:16:00,78.3,64.6,-100.00,ENE,68,0.0,2.0,63,0.00,,,0.00,meteohub,2013-03-31 17:16:00,
2013-03-31 12:17:00,78.3,64.6,-100.00,ENE,68,0.0,2.0,63,0.00,,,0.00,meteohub,2013-03-31 17:17:00,
2013-03-31 12:20:00,78.4,64.4,-100.00,NE,45,0.0,2.0,62,0.00,,,0.00,meteohub,2013-03-31 17:20:00,
2013-03-31 12:22:00,78.6,64.6,-100.00,South,180,2.0,2.0,62,0.00,,,0.00,meteohub,2013-03-31 17:22:00,
2013-03-31 12:24:00,78.8,64.8,-100.00,SSE,158,1.0,2.0,62,0.00,,,0.00,meteohub,2013-03-31 17:24:00,
2013-03-31 12:28:00,79.3,65.1,-100.00,West,270,1.0,2.0,62,0.00,,,0.00,meteohub,2013-03-31 17:28:00,
2013-03-31 12:30:00,79.5,64.9,-100.00,South,180,2.0,2.0,61,0.00,,,0.00,meteohub,2013-03-31 17:30:00,
2013-03-31 12:32:00,79.5,64.9,-100.00,South,180,2.0,4.0,61,0.00,,,0.00,meteohub,2013-03-31 17:32:00,
2013-03-31 12:36:00,80.2,65.1,-100.00,East,90,1.0,4.0,60,0.00,,,0.00,meteohub,2013-03-31 17:36:00,
2013-03-31 12:40:00,81.0,65.8,-100.00,SE,135,2.0,4.0,60,0.00,,,0.00,meteohub,2013-03-31 17:40:00,
2013-03-31 12:42:00,81.3,65.1,-100.00,NE,45,1.0,4.0,58,0.00,,,0.00,meteohub,2013-03-31 17:42:00,
2013-03-31 12:46:00,82.0,65.3,-100.00,South,180,1.0,3.0,57,0.00,,,0.00,meteohub,2013-03-31 17:46:00,
2013-03-31 12:47:00,82.0,65.3,-100.00,South,180,1.0,3.0,57,0.00,,,0.00,meteohub,2013-03-31 17:47:00,
2013-03-31 12:52:00,81.9,65.1,-100.00,NNE,23,0.0,2.0,57,0.00,,,0.00,meteohub,2013-03-31 17:52:00,
2013-03-31 12:54:00,82.2,66.0,-100.00,SSE,158,0.0,2.0,58,0.00,,,0.00,meteohub,2013-03-31 17:54:00,
2013-03-31 13:00:00,82.6,64.8,-100.00,South,180,0.0,3.0,55,0.00,,,0.00,meteohub,2013-03-31 18:00:00,
2013-03-31 13:02:00,82.6,64.8,-100.00,South,180,0.0,3.0,55,0.00,,,0.00,meteohub,2013-03-31 18:02:00,
2013-03-31 13:06:00,82.4,65.1,-100.00,NNW,338,0.0,3.0,56,0.00,,,0.00,meteohub,2013-03-31 18:06:00,
2013-03-31 13:08:00,82.4,65.1,-100.00,North,0,0.0,3.0,56,0.00,,,0.00,meteohub,2013-03-31 18:08:00,
2013-03-31 13:11:00,82.6,65.3,-100.00,North,0,2.0,2.0,56,0.00,,,0.00,meteohub,2013-03-31 18:11:00,
2013-03-31 13:15:00,82.6,65.3,-100.00,WNW,293,2.0,2.0,56,0.00,,,0.00,meteohub,2013-03-31 18:15:00,
2013-03-31 13:17:00,82.6,64.8,-100.00,SSW,203,2.0,2.0,55,0.00,,,0.00,meteohub,2013-03-31 18:17:00,
2013-03-31 13:21:00,81.7,63.9,-100.00,NW,315,2.0,2.0,55,0.00,,,0.00,meteohub,2013-03-31 18:21:00,
2013-03-31 13:23:00,81.3,63.7,-100.00,ENE,68,5.0,5.0,55,0.00,,,0.00,meteohub,2013-03-31 18:23:00,
2013-03-31 13:25:00,80.8,63.1,-100.00,NNE,23,3.0,5.0,55,0.00,,,0.00,meteohub,2013-03-31 18:25:00,
2013-03-31 13:27:00,80.4,63.3,-100.00,North,0,0.0,5.0,56,0.00,,,0.00,meteohub,2013-03-31 18:27:00,
2013-03-31 13:31:00,80.4,63.9,-100.00,NE,45,6.0,6.0,57,0.00,,,0.00,meteohub,2013-03-31 18:31:00,
2013-03-31 13:32:00,80.4,63.9,-100.00,NE,45,6.0,6.0,57,0.00,,,0.00,meteohub,2013-03-31 18:32:00,
2013-03-31 13:33:00,81.0,64.2,-100.00,NE,45,5.0,5.0,57,0.00,,,0.00,meteohub,2013-03-31 18:33:00,
2013-03-31 13:39:00,82.6,64.8,-100.00,NE,45,4.0,6.0,55,0.00,,,0.00,meteohub,2013-03-31 18:39:00,
2013-03-31 13:41:00,82.6,63.7,-100.00,East,90,5.0,6.0,53,0.00,,,0.00,meteohub,2013-03-31 18:41:00,
2013-03-31 13:43:00,82.8,64.4,-100.00,NNE,23,4.0,6.0,54,0.00,,,0.00,meteohub,2013-03-31 18:43:00,
2013-03-31 13:47:00,82.9,64.6,-100.00,NE,45,1.0,6.0,54,0.00,,,0.00,meteohub,2013-03-31 18:47:00,
2013-03-31 13:49:00,83.3,64.9,-100.00,North,0,2.0,6.0,54,0.00,,,0.00,meteohub,2013-03-31 18:49:00,
2013-03-31 13:53:00,84.0,65.1,-100.00,NE,45,2.0,5.0,53,0.00,,,0.00,meteohub,2013-03-31 18:53:00,
2013-03-31 13:55:00,84.2,65.3,-100.00,NE,45,5.0,6.0,53,0.00,,,0.00,meteohub,2013-03-31 18:55:00,
2013-03-31 13:59:00,84.4,64.2,-100.00,NE,45,2.0,6.0,51,0.00,,,0.00,meteohub,2013-03-31 18:59:00,
2013-03-31 14:02:00,84.6,64.4,-100.00,NE,45,7.0,7.0,51,0.00,,,0.00,meteohub,2013-03-31 19:02:00,
2013-03-31 14:06:00,84.4,64.2,-100.00,East,90,3.0,7.0,51,0.00,,,0.00,meteohub,2013-03-31 19:06:00,
2013-03-31 14:08:00,84.4,64.2,-100.00,NE,45,5.0,7.0,51,0.00,,,0.00,meteohub,2013-03-31 19:08:00,
2013-03-31 14:10:00,84.2,64.0,-100.00,ENE,68,8.0,8.0,51,0.00,,,0.00,meteohub,2013-03-31 19:10:00,
2013-03-31 14:14:00,83.5,63.5,-100.00,ENE,68,5.0,8.0,51,0.00,,,0.00,meteohub,2013-03-31 19:14:00,
2013-03-31 14:17:00,83.1,63.1,-100.00,ENE,68,2.0,8.0,51,0.00,,,0.00,meteohub,2013-03-31 19:17:00,
2013-03-31 14:20:00,82.2,62.8,-100.00,North,0,3.0,8.0,52,0.00,,,0.00,meteohub,2013-03-31 19:20:00,
2013-03-31 14:22:00,81.7,62.4,-100.00,NE,45,4.0,8.0,52,0.00,,,0.00,meteohub,2013-03-31 19:22:00,
2013-03-31 14:28:00,81.1,62.4,-100.00,NE,45,4.0,8.0,53,0.00,,,0.00,meteohub,2013-03-31 19:28:00,
2013-03-31 14:30:00,80.8,62.1,-100.00,NE,45,4.0,8.0,53,0.00,,,0.00,meteohub,2013-03-31 19:30:00,
2013-03-31 14:32:00,80.4,61.2,-100.00,NE,45,6.0,6.0,52,0.00,,,0.00,meteohub,2013-03-31 19:32:00,
2013-03-31 14:36:00,80.4,61.2,-100.00,NE,45,9.0,9.0,52,0.00,,,0.00,meteohub,2013-03-31 19:36:00,
2013-03-31 14:38:00,80.2,61.0,-100.00,NE,45,2.0,6.0,52,0.00,,,0.00,meteohub,2013-03-31 19:38:00,
2013-03-31 14:40:00,79.9,60.6,-100.00,West,270,0.0,9.0,52,0.00,,,0.00,meteohub,2013-03-31 19:40:00,
2013-03-31 14:44:00,79.2,59.5,-100.00,NE,45,4.0,9.0,51,0.00,,,0.00,meteohub,2013-03-31 19:44:00,
2013-03-31 14:46:00,78.6,59.5,-100.00,NNE,23,5.0,9.0,52,0.00,,,0.00,meteohub,2013-03-31 19:46:00,
2013-03-31 14:48:00,78.6,59.5,-100.00,ENE,68,2.0,9.0,52,0.00,,,0.00,meteohub,2013-03-31 19:48:00,
2013-03-31 14:50:00,78.3,59.2,-100.00,NE,45,7.0,9.0,52,0.00,,,0.00,meteohub,2013-03-31 19:50:00,
2013-03-31 14:52:00,77.9,58.8,-100.00,NNE,23,5.0,9.0,52,0.00,,,0.00,meteohub,2013-03-31 19:52:00,
2013-03-31 14:54:00,77.7,58.6,-100.00,NNE,23,9.0,9.0,52,0.00,,,0.00,meteohub,2013-03-31 19:54:00,
2013-03-31 14:59:00,77.4,58.3,-100.00,NE,45,4.0,9.0,52,0.00,,,0.00,meteohub,2013-03-31 19:59:00,
2013-03-31 15:01:00,77.0,58.1,-100.00,NE,45,6.0,9.0,52,0.00,,,0.00,meteohub,2013-03-31 20:01:00,
2013-03-31 15:02:00,77.0,58.1,-100.00,NE,45,6.0,9.0,52,0.00,,,0.00,meteohub,2013-03-31 20:02:00,
2013-03-31 15:07:00,76.1,58.8,-100.00,ENE,68,1.0,9.0,55,0.00,,,0.00,meteohub,2013-03-31 20:07:00,
2013-03-31 15:09:00,76.1,59.2,-100.00,NE,45,5.0,9.0,56,0.00,,,0.00,meteohub,2013-03-31 20:09:00,
2013-03-31 15:13:00,75.6,59.2,-100.00,NE,45,12.0,12.0,57,0.00,,,0.00,meteohub,2013-03-31 20:13:00,
2013-03-31 15:15:00,75.4,59.0,-100.00,NE,45,3.0,12.0,57,0.00,,,0.00,meteohub,2013-03-31 20:15:00,
2013-03-31 15:17:00,75.0,59.2,-100.00,ENE,68,3.0,12.0,58,0.00,,,0.00,meteohub,2013-03-31 20:17:00,
2013-03-31 15:23:00,74.5,60.1,-100.00,NNE,23,2.0,12.0,61,0.00,,,0.00,meteohub,2013-03-31 20:23:00,
2013-03-31 15:27:00,74.5,61.0,-100.00,NNE,23,3.0,12.0,63,0.00,,,0.00,meteohub,2013-03-31 20:27:00,
2013-03-31 15:29:00,74.1,61.2,-100.00,NNE,23,6.0,12.0,64,0.00,,,0.00,meteohub,2013-03-31 20:29:00,
2013-03-31 15:31:00,74.1,61.5,-100.00,NE,45,0.0,6.0,65,0.00,,,0.00,meteohub,2013-03-31 20:31:00,
2013-03-31 15:32:00,73.9,61.9,-100.00,NE,45,2.0,6.0,66,0.00,,,0.00,meteohub,2013-03-31 20:32:00,
2013-03-31 15:38:00,73.4,62.2,-100.00,NNE,23,8.0,8.0,68,0.00,,,0.00,meteohub,2013-03-31 20:38:00,
2013-03-31 15:44:00,73.0,62.6,-100.00,NE,45,1.0,8.0,70,0.00,,,0.00,meteohub,2013-03-31 20:44:00,
2013-03-31 15:46:00,72.7,62.2,-100.00,NE,45,2.0,8.0,70,0.00,,,0.00,meteohub,2013-03-31 20:46:00,
2013-03-31 15:48:00,72.5,62.2,-100.00,NE,45,0.0,8.0,70,0.00,,,0.00,meteohub,2013-03-31 20:48:00,
2013-03-31 15:52:00,72.3,62.4,-100.00,North,0,1.0,8.0,71,0.00,,,0.00,meteohub,2013-03-31 20:52:00,
2013-03-31 15:56:00,72.1,62.6,-100.00,North,0,0.0,2.0,72,0.00,,,0.00,meteohub,2013-03-31 20:56:00,
2013-03-31 15:58:00,72.1,62.6,-100.00,SE,135,0.0,2.0,72,0.00,,,0.00,meteohub,2013-03-31 20:58:00,
2013-03-31 16:00:00,72.1,62.6,-100.00,SE,135,1.0,2.0,72,0.00,,,0.00,meteohub,2013-03-31 21:00:00,
2013-03-31 16:02:00,72.0,62.4,-100.00,NE,45,0.0,2.0,72,0.00,,,0.00,meteohub,2013-03-31 21:02:00,
2013-03-31 16:08:00,71.4,62.8,-100.00,ENE,68,2.0,2.0,74,0.00,,,0.00,meteohub,2013-03-31 21:08:00,
2013-03-31 16:10:00,71.4,62.8,-100.00,ENE,68,2.0,5.0,74,0.00,,,0.00,meteohub,2013-03-31 21:10:00,
2013-03-31 16:12:00,71.2,63.0,-100.00,SSE,158,8.0,8.0,75,0.00,,,0.00,meteohub,2013-03-31 21:12:00,
2013-03-31 16:14:00,70.9,63.0,-100.00,ENE,68,2.0,5.0,76,0.00,,,0.00,meteohub,2013-03-31 21:14:00,
2013-03-31 16:17:00,70.5,62.6,-100.00,ENE,68,8.0,8.0,76,0.00,,,0.00,meteohub,2013-03-31 21:17:00,
2013-03-31 16:20:00,70.3,62.8,-100.00,East,90,3.0,8.0,77,0.00,,,0.00,meteohub,2013-03-31 21:20:00,
2013-03-31 16:24:00,69.6,62.4,-100.00,SSE,158,6.0,8.0,78,0.00,,,0.00,meteohub,2013-03-31 21:24:00,
2013-03-31 16:26:00,69.6,62.8,-100.00,SE,135,4.0,8.0,79,0.00,,,0.00,meteohub,2013-03-31 21:26:00,
2013-03-31 16:28:00,69.4,62.6,-100.00,ENE,68,2.0,8.0,79,0.00,,,0.00,meteohub,2013-03-31 21:28:00,
2013-03-31 16:32:00,69.3,62.8,-100.00,East,90,4.0,8.0,80,0.00,,,0.00,meteohub,2013-03-31 21:32:00,
2013-03-31 16:34:00,69.1,62.6,-100.00,NE,45,3.0,8.0,80,0.00,,,0.00,meteohub,2013-03-31 21:34:00,
2013-03-31 16:36:00,69.1,62.6,-100.00,ENE,68,1.0,6.0,80,0.00,,,0.00,meteohub,2013-03-31 21:36:00,
2013-03-31 16:40:00,69.1,62.2,-100.00,NE,45,3.0,4.0,79,0.02,,,0.02,meteohub,2013-03-31 21:40:00,
2013-03-31 16:43:00,69.1,62.2,-100.00,NE,45,3.0,4.0,79,0.02,,,0.02,meteohub,2013-03-31 21:43:00,
2013-03-31 16:47:00,69.1,61.9,-100.00,East,90,0.0,4.0,78,0.02,,,0.02,meteohub,2013-03-31 21:47:00,
2013-03-31 16:49:00,69.1,61.9,-100.00,East,90,0.0,4.0,78,0.02,,,0.02,meteohub,2013-03-31 21:49:00,
2013-03-31 16:53:00,69.6,61.7,-100.00,South,180,0.0,4.0,76,0.02,,,0.02,meteohub,2013-03-31 21:53:00,
2013-03-31 16:55:00,69.8,61.2,-100.00,SE,135,0.0,3.0,74,0.02,,,0.02,meteohub,2013-03-31 21:55:00,
2013-03-31 16:59:00,70.0,61.3,-100.00,ESE,113,2.0,3.0,74,0.02,,,0.02,meteohub,2013-03-31 21:59:00,
2013-03-31 17:01:00,70.3,61.3,-100.00,SW,225,1.0,2.0,73,0.02,,,0.02,meteohub,2013-03-31 22:01:00,
2013-03-31 17:05:00,70.9,61.3,-100.00,SE,135,0.0,2.0,72,0.02,,,0.02,meteohub,2013-03-31 22:05:00,
2013-03-31 17:09:00,71.2,61.7,-100.00,SSE,158,2.0,2.0,72,0.02,,,0.02,meteohub,2013-03-31 22:09:00,
2013-03-31 17:12:00,71.2,61.3,-100.00,SE,135,2.0,2.0,71,0.02,,,0.02,meteohub,2013-03-31 22:12:00,
2013-03-31 17:14:00,71.4,60.8,-100.00,South,180,4.0,4.0,69,0.02,,,0.02,meteohub,2013-03-31 22:14:00,
2013-03-31 17:16:00,71.4,60.3,-100.00,South,180,1.0,4.0,68,0.02,,,0.02,meteohub,2013-03-31 22:16:00,
2013-03-31 17:18:00,71.8,61.0,-100.00,WNW,293,0.0,4.0,69,0.02,,,0.02,meteohub,2013-03-31 22:18:00,
2013-03-31 17:20:00,72.1,61.0,-100.00,SSW,203,9.0,9.0,68,0.02,,,0.02,meteohub,2013-03-31 22:20:00,
2013-03-31 17:26:00,72.5,60.1,-100.00,SSW,203,3.0,9.0,65,0.02,,,0.02,meteohub,2013-03-31 22:26:00,
2013-03-31 17:28:00,72.3,59.9,-100.00,NE,45,7.0,9.0,65,0.02,,,0.02,meteohub,2013-03-31 22:28:00,
2013-03-31 17:30:00,72.5,60.1,-100.00,SSE,158,3.0,9.0,65,0.02,,,0.02,meteohub,2013-03-31 22:30:00,
2013-03-31 17:34:00,72.5,60.1,-100.00,South,180,2.0,9.0,65,0.02,,,0.02,meteohub,2013-03-31 22:34:00,
2013-03-31 17:38:00,72.5,60.4,-100.00,SW,225,3.0,9.0,66,0.00,,,0.02,meteohub,2013-03-31 22:38:00,
2013-03-31 17:40:00,72.3,60.3,-100.00,South,180,4.0,7.0,66,0.00,,,0.02,meteohub,2013-03-31 22:40:00,
2013-03-31 17:44:00,71.8,60.3,-100.00,West,270,2.0,7.0,67,0.00,,,0.02,meteohub,2013-03-31 22:44:00,
2013-03-31 17:46:00,71.8,60.6,-100.00,East,90,2.0,5.0,68,0.00,,,0.02,meteohub,2013-03-31 22:46:00,
2013-03-31 17:48:00,71.4,59.9,-100.00,SSW,203,0.0,5.0,67,0.00,,,0.02,meteohub,2013-03-31 22:48:00,
2013-03-31 17:50:00,71.4,60.3,-100.00,SW,225,0.0,5.0,68,0.00,,,0.02,meteohub,2013-03-31 22:50:00,
2013-03-31 17:54:00,70.9,59.7,-100.00,ENE,68,2.0,5.0,68,0.00,,,0.02,meteohub,2013-03-31 22:54:00,
2013-03-31 17:56:00,70.7,59.5,-100.00,SE,135,2.0,3.0,68,0.00,,,0.02,meteohub,2013-03-31 22:56:00,
2013-03-31 17:58:00,70.7,59.5,-100.00,East,90,2.0,3.0,68,0.00,,,0.02,meteohub,2013-03-31 22:58:00,
2013-03-31 18:02:00,70.5,59.4,-100.00,ENE,68,4.0,4.0,68,0.00,,,0.02,meteohub,2013-03-31 23:02:00,
2013-03-31 18:04:00,70.3,59.4,-100.00,NE,45,2.0,2.0,68,0.00,,,0.02,meteohub,2013-03-31 23:04:00,
2013-03-31 18:06:00,70.5,59.4,-100.00,SE,135,0.0,4.0,68,0.00,,,0.02,meteohub,2013-03-31 23:06:00,
2013-03-31 18:08:00,70.3,59.4,-100.00,ESE,113,2.0,4.0,68,0.00,,,0.02,meteohub,2013-03-31 23:08:00,
2013-03-31 18:10:00,70.3,59.4,-100.00,NE,45,1.0,4.0,68,0.00,,,0.02,meteohub,2013-03-31 23:10:00,
2013-03-31 18:15:00,70.5,59.4,-100.00,NE,45,5.0,5.0,68,0.00,,,0.02,meteohub,2013-03-31 23:15:00,
2013-03-31 18:17:00,70.3,58.8,-100.00,NE,45,2.0,4.0,67,0.00,,,0.02,meteohub,2013-03-31 23:17:00,
2013-03-31 18:19:00,70.3,58.8,-100.00,NE,45,3.0,4.0,67,0.00,,,0.02,meteohub,2013-03-31 23:19:00,
2013-03-31 18:23:00,70.3,58.8,-100.00,NE,45,3.0,5.0,67,0.00,,,0.02,meteohub,2013-03-31 23:23:00,
2013-03-31 18:29:00,70.3,58.8,-100.00,NE,45,3.0,5.0,67,0.00,,,0.02,meteohub,2013-03-31 23:29:00,
2013-03-31 18:32:00,70.3,58.8,-100.00,NE,45,3.0,5.0,67,0.00,,,0.02,meteohub,2013-03-31 23:32:00,
2013-03-31 18:37:00,70.5,58.6,-100.00,NNE,23,2.0,5.0,66,0.00,,,0.02,meteohub,2013-03-31 23:37:00,
2013-03-31 18:39:00,70.7,58.8,-100.00,ESE,113,0.0,5.0,66,0.00,,,0.02,meteohub,2013-03-31 23:39:00,
2013-03-31 18:42:00,70.7,58.8,-100.00,NE,45,3.0,5.0,66,0.00,,,0.02,meteohub,2013-03-31 23:42:00,
2013-03-31 18:43:00,70.7,58.8,-100.00,NE,45,3.0,5.0,66,0.00,,,0.02,meteohub,2013-03-31 23:43:00,
2013-03-31 18:45:00,70.9,58.5,-100.00,NE,45,2.0,5.0,65,0.00,,,0.02,meteohub,2013-03-31 23:45:00,
2013-03-31 18:47:00,70.9,58.5,-100.00,NE,45,3.0,5.0,65,0.00,,,0.02,meteohub,2013-03-31 23:47:00,
2013-03-31 18:49:00,70.9,58.5,-100.00,East,90,0.0,5.0,65,0.00,,,0.02,meteohub,2013-03-31 23:49:00,
2013-03-31 18:56:00,70.9,58.1,-100.00,ESE,113,0.0,3.0,64,0.00,,,0.02,meteohub,2013-03-31 23:56:00,
2013-03-31 18:58:00,70.7,58.3,-100.00,NE,45,1.0,3.0,65,0.00,,,0.02,meteohub,2013-03-31 23:58:00,
2013-03-31 19:02:00,70.7,57.9,-100.00,ESE,113,2.0,3.0,64,0.00,,,0.02,meteohub,2013-04-01 00:02:00,
2013-03-31 19:04:00,70.7,57.9,-100.00,ESE,113,0.0,3.0,64,0.00,,,0.02,meteohub,2013-04-01 00:04:00,
2013-03-31 19:06:00,70.7,57.9,-100.00,NE,45,2.0,2.0,64,0.00,,,0.00,meteohub,2013-04-01 00:06:00,
2013-03-31 19:10:00,70.5,57.7,-100.00,NE,45,2.0,2.0,64,0.00,,,0.00,meteohub,2013-04-01 00:10:00,
2013-03-31 19:12:00,70.7,57.9,-100.00,NNE,23,3.0,3.0,64,0.00,,,0.00,meteohub,2013-04-01 00:12:00,
2013-03-31 19:16:00,70.5,57.7,-100.00,NE,45,1.0,3.0,64,0.00,,,0.00,meteohub,2013-04-01 00:16:00,
2013-03-31 19:18:00,70.3,57.6,-100.00,NNE,23,0.0,3.0,64,0.00,,,0.00,meteohub,2013-04-01 00:18:00,
2013-03-31 19:22:00,70.3,57.6,-100.00,NNE,23,0.0,3.0,64,0.00,,,0.00,meteohub,2013-04-01 00:22:00,
2013-03-31 19:26:00,70.3,57.6,-100.00,NNE,23,0.0,3.0,64,0.00,,,0.00,meteohub,2013-04-01 00:26:00,
2013-03-31 19:28:00,70.2,57.4,-100.00,NNE,23,0.0,3.0,64,0.00,,,0.00,meteohub,2013-04-01 00:28:00,
2013-03-31 19:32:00,70.2,57.9,-100.00,NNE,23,1.0,1.0,65,0.00,,,0.00,meteohub,2013-04-01 00:32:00,
2013-03-31 19:36:00,70.0,57.7,-100.00,NNE,23,0.0,1.0,65,0.00,,,0.00,meteohub,2013-04-01 00:36:00,
2013-03-31 19:38:00,70.0,57.7,-100.00,ENE,68,0.0,1.0,65,0.00,,,0.00,meteohub,2013-04-01 00:38:00,
2013-03-31 19:40:00,70.0,57.7,-100.00,NE,45,0.0,1.0,65,0.00,,,0.00,meteohub,2013-04-01 00:40:00,
2013-03-31 19:42:00,69.8,57.6,-100.00,NE,45,0.0,1.0,65,0.00,,,0.00,meteohub,2013-04-01 00:42:00,
2013-03-31 19:48:00,69.6,57.4,-100.00,NW,315,0.0,1.0,65,0.00,,,0.00,meteohub,2013-04-01 00:48:00,
2013-03-31 19:54:00,69.4,57.6,-100.00,NW,315,0.0,1.0,66,0.00,,,0.00,meteohub,2013-04-01 00:54:00,
2013-03-31 19:58:00,69.1,57.2,-100.00,NNE,23,0.0,0.0,66,0.00,,,0.00,meteohub,2013-04-01 00:58:00,
2013-03-31 20:00:00,69.1,57.2,-100.00,NNE,23,0.0,0.0,66,0.00,,,0.00,meteohub,2013-04-01 01:00:00,
2013-03-31 20:02:00,69.1,57.2,-100.00,NNE,23,0.0,0.0,66,0.00,,,0.00,meteohub,2013-04-01 01:02:00,
2013-03-31 20:06:00,68.7,57.4,-100.00,NNE,23,0.0,0.0,67,0.00,,,0.00,meteohub,2013-04-01 01:06:00,
2013-03-31 20:13:00,68.4,57.4,-100.00,NNE,23,0.0,0.0,68,0.00,,,0.00,meteohub,2013-04-01 01:13:00,
2013-03-31 20:15:00,68.2,57.2,-100.00,NNE,23,0.0,0.0,68,0.00,,,0.00,meteohub,2013-04-01 01:15:00,
2013-03-31 20:17:00,68.2,57.2,-100.00,NNE,23,0.0,0.0,68,0.00,,,0.00,meteohub,2013-04-01 01:17:00,
2013-03-31 20:19:00,68.2,57.2,-100.00,NNE,23,0.0,0.0,68,0.00,,,0.00,meteohub,2013-04-01 01:19:00,
2013-03-31 20:23:00,67.8,57.2,-100.00,NNW,338,0.0,0.0,69,0.00,,,0.00,meteohub,2013-04-01 01:23:00,
2013-03-31 20:25:00,67.6,57.0,-100.00,NNW,338,0.0,0.0,69,0.00,,,0.00,meteohub,2013-04-01 01:25:00,
2013-03-31 20:27:00,67.6,57.0,-100.00,NNW,338,0.0,0.0,69,0.00,,,0.00,meteohub,2013-04-01 01:27:00,
2013-03-31 20:31:00,67.3,56.8,-100.00,NNW,338,0.0,0.0,69,0.00,,,0.00,meteohub,2013-04-01 01:31:00,
2013-03-31 20:33:00,67.3,56.8,-100.00,NNW,338,0.0,0.0,69,0.00,,,0.00,meteohub,2013-04-01 01:33:00,
2013-03-31 20:35:00,67.1,56.7,-100.00,NNW,338,0.0,0.0,69,0.00,,,0.00,meteohub,2013-04-01 01:35:00,
2013-03-31 20:38:00,66.9,56.5,-100.00,NNW,338,0.0,0.0,69,0.00,,,0.00,meteohub,2013-04-01 01:38:00,
2013-03-31 20:40:00,66.7,56.7,-100.00,NNW,338,0.0,0.0,70,0.00,,,0.00,meteohub,2013-04-01 01:40:00,
2013-03-31 20:46:00,66.4,56.3,-100.00,NNW,338,0.0,0.0,70,0.00,,,0.00,meteohub,2013-04-01 01:46:00,
2013-03-31 20:47:00,66.4,56.3,-100.00,NNW,338,0.0,0.0,70,0.00,,,0.00,meteohub,2013-04-01 01:47:00,
2013-03-31 20:52:00,66.0,56.3,-100.00,NNW,338,0.0,0.0,71,0.00,,,0.00,meteohub,2013-04-01 01:52:00,
2013-03-31 20:58:00,65.7,55.9,-100.00,NNW,338,0.0,0.0,71,0.00,,,0.00,meteohub,2013-04-01 01:58:00,
2013-03-31 21:00:00,65.5,55.8,-100.00,NNW,338,0.0,0.0,71,0.00,,,0.00,meteohub,2013-04-01 02:00:00,
2013-03-31 21:02:00,65.5,55.8,-100.00,NNW,338,0.0,0.0,71,0.00,,,0.00,meteohub,2013-04-01 02:02:00,
2013-03-31 21:04:00,65.3,55.6,-100.00,SSW,203,0.0,0.0,71,0.00,,,0.00,meteohub,2013-04-01 02:04:00,
2013-03-31 21:08:00,65.1,55.9,-100.00,South,180,0.0,0.0,72,0.00,,,0.00,meteohub,2013-04-01 02:08:00,
2013-03-31 21:10:00,64.9,55.8,-100.00,West,270,0.0,0.0,72,0.00,,,0.00,meteohub,2013-04-01 02:10:00,
2013-03-31 21:14:00,64.9,55.8,-100.00,West,270,0.0,0.0,72,0.00,,,0.00,meteohub,2013-04-01 02:14:00,
2013-03-31 21:16:00,64.8,55.9,-100.00,West,270,0.0,0.0,73,0.00,,,0.00,meteohub,2013-04-01 02:16:00,
2013-03-31 21:17:00,64.8,55.9,-100.00,West,270,0.0,0.0,73,0.00,,,0.00,meteohub,2013-04-01 02:17:00,
2013-03-31 21:22:00,64.6,55.8,-100.00,West,270,0.0,0.0,73,0.00,,,0.00,meteohub,2013-04-01 02:22:00,
2013-03-31 21:24:00,64.4,55.6,-100.00,West,270,0.0,0.0,73,0.00,,,0.00,meteohub,2013-04-01 02:24:00,
2013-03-31 21:28:00,64.0,55.2,-100.00,NNW,338,0.0,0.0,73,0.00,,,0.00,meteohub,2013-04-01 02:28:00,
2013-03-31 21:32:00,64.0,55.2,-100.00,NNW,338,0.0,0.0,73,0.00,,,0.00,meteohub,2013-04-01 02:32:00,
2013-03-31 21:34:00,63.7,55.2,-100.00,NNW,338,0.0,0.0,74,0.00,,,0.00,meteohub,2013-04-01 02:34:00,
2013-03-31 21:39:00,63.7,55.2,-100.00,NNW,338,0.0,0.0,74,0.00,,,0.00,meteohub,2013-04-01 02:39:00,
2013-03-31 21:45:00,63.5,55.4,-100.00,NE,45,0.0,0.0,75,0.00,,,0.00,meteohub,2013-04-01 02:45:00,
2013-03-31 21:47:00,63.3,55.2,-100.00,NNE,23,0.0,0.0,75,0.00,,,0.00,meteohub,2013-04-01 02:47:00,
2013-03-31 21:51:00,63.1,55.0,-100.00,NNE,23,0.0,0.0,75,0.00,,,0.00,meteohub,2013-04-01 02:51:00,
2013-03-31 21:53:00,63.1,55.0,-100.00,NNE,23,0.0,0.0,75,0.00,,,0.00,meteohub,2013-04-01 02:53:00,
2013-03-31 21:55:00,63.1,55.0,-100.00,NNE,23,0.0,0.0,75,0.00,,,0.00,meteohub,2013-04-01 02:55:00,
2013-03-31 22:01:00,62.8,55.0,-100.00,NNE,23,0.0,0.0,76,0.00,,,0.00,meteohub,2013-04-01 03:01:00,
2013-03-31 22:03:00,62.6,54.9,-100.00,NNE,23,0.0,0.0,76,0.00,,,0.00,meteohub,2013-04-01 03:03:00,
2013-03-31 22:05:00,62.6,54.9,-100.00,NE,45,0.0,0.0,76,0.00,,,0.00,meteohub,2013-04-01 03:05:00,
2013-03-31 22:09:00,62.4,54.7,-100.00,NNW,338,0.0,0.0,76,0.00,,,0.00,meteohub,2013-04-01 03:09:00,
2013-03-31 22:11:00,62.4,54.7,-100.00,WNW,293,0.0,0.0,76,0.00,,,0.00,meteohub,2013-04-01 03:11:00,
2013-03-31 22:15:00,62.2,54.9,-100.00,SSW,203,0.0,0.0,77,0.00,,,0.00,meteohub,2013-04-01 03:15:00,
2013-03-31 22:17:00,62.1,54.7,-100.00,SSW,203,0.0,0.0,77,0.00,,,0.00,meteohub,2013-04-01 03:17:00,
2013-03-31 22:19:00,62.1,54.7,-100.00,SSW,203,0.0,0.0,77,0.00,,,0.00,meteohub,2013-04-01 03:19:00,
2013-03-31 22:21:00,61.9,54.7,-100.00,SSW,203,0.0,0.0,77,0.00,,,0.00,meteohub,2013-04-01 03:21:00,
2013-03-31 22:25:00,61.9,54.7,-100.00,SW,225,0.0,0.0,77,0.00,,,0.00,meteohub,2013-04-01 03:25:00,
2013-03-31 22:28:00,61.7,54.5,-100.00,SW,225,0.0,0.0,77,0.00,,,0.00,meteohub,2013-04-01 03:28:00,
2013-03-31 22:32:00,61.7,54.5,-100.00,SW,225,0.0,0.0,77,0.00,,,0.00,meteohub,2013-04-01 03:32:00,
2013-03-31 22:34:00,61.7,54.5,-100.00,SW,225,0.0,0.0,77,0.00,,,0.00,meteohub,2013-04-01 03:34:00,
2013-03-31 22:36:00,61.7,54.5,-100.00,SW,225,0.0,0.0,77,0.00,,,0.00,meteohub,2013-04-01 03:36:00,
2013-03-31 22:38:00,61.5,54.7,-100.00,SW,225,0.0,0.0,78,0.00,,,0.00,meteohub,2013-04-01 03:38:00,
2013-03-31 22:40:00,61.3,54.5,-100.00,SW,225,0.0,0.0,78,0.00,,,0.00,meteohub,2013-04-01 03:40:00,
2013-03-31 22:44:00,61.3,54.5,-100.00,West,270,0.0,0.0,78,0.00,,,0.00,meteohub,2013-04-01 03:44:00,
2013-03-31 22:46:00,61.3,54.5,-100.00,West,270,0.0,0.0,78,0.00,,,0.00,meteohub,2013-04-01 03:46:00,
2013-03-31 22:48:00,61.0,54.1,-100.00,West,270,0.0,0.0,78,0.00,,,0.00,meteohub,2013-04-01 03:48:00,
2013-03-31 22:52:00,61.0,54.1,-100.00,SSW,203,0.0,0.0,78,0.00,,,0.00,meteohub,2013-04-01 03:52:00,
2013-03-31 22:56:00,61.0,54.5,-100.00,SSW,203,0.0,0.0,79,0.00,,,0.00,meteohub,2013-04-01 03:56:00,
2013-03-31 22:58:00,61.0,54.5,-100.00,SSW,203,0.0,0.0,79,0.00,,,0.00,meteohub,2013-04-01 03:58:00,
2013-03-31 23:00:00,60.6,54.1,-100.00,SW,225,0.0,0.0,79,0.00,,,0.00,meteohub,2013-04-01 04:00:00,
2013-03-31 23:02:00,60.6,54.1,-100.00,WSW,248,0.0,0.0,79,0.00,,,0.00,meteohub,2013-04-01 04:02:00,
2013-03-31 23:03:00,60.6,54.1,-100.00,WSW,248,0.0,0.0,79,0.00,,,0.00,meteohub,2013-04-01 04:03:00,
2013-03-31 23:05:00,60.6,54.1,-100.00,WSW,248,0.0,0.0,79,0.00,,,0.00,meteohub,2013-04-01 04:05:00,
2013-03-31 23:09:00,60.6,54.1,-100.00,WSW,248,0.0,0.0,79,0.00,,,0.00,meteohub,2013-04-01 04:09:00,
2013-03-31 23:11:00,60.6,54.1,-100.00,WSW,248,0.0,0.0,79,0.00,,,0.00,meteohub,2013-04-01 04:11:00,
2013-03-31 23:15:00,60.4,54.0,-100.00,North,0,0.0,0.0,79,0.00,,,0.00,meteohub,2013-04-01 04:15:00,
2013-03-31 23:17:00,60.4,54.0,-100.00,North,0,0.0,0.0,79,0.00,,,0.00,meteohub,2013-04-01 04:17:00,
2013-03-31 23:19:00,60.4,54.0,-100.00,North,0,0.0,0.0,79,0.00,,,0.00,meteohub,2013-04-01 04:19:00,
2013-03-31 23:21:00,60.4,54.0,-100.00,North,0,0.0,0.0,79,0.00,,,0.00,meteohub,2013-04-01 04:21:00,
2013-03-31 23:23:00,60.3,53.8,-100.00,North,0,0.0,0.0,79,0.00,,,0.00,meteohub,2013-04-01 04:23:00,
2013-03-31 23:27:00,60.1,54.0,-100.00,North,0,0.0,0.0,80,0.00,,,0.00,meteohub,2013-04-01 04:27:00,
2013-03-31 23:31:00,59.9,53.8,-100.00,North,0,0.0,0.0,80,0.00,,,0.00,meteohub,2013-04-01 04:31:00,
2013-03-31 23:32:00,59.9,53.8,-100.00,West,270,0.0,0.0,80,0.00,,,0.00,meteohub,2013-04-01 04:32:00,
2013-03-31 23:37:00,59.7,53.6,-100.00,WNW,293,0.0,0.0,80,0.00,,,0.00,meteohub,2013-04-01 04:37:00,
2013-03-31 23:39:00,59.7,53.6,-100.00,North,0,0.0,0.0,80,0.00,,,0.00,meteohub,2013-04-01 04:39:00,
2013-03-31 23:41:00,59.5,53.4,-100.00,North,0,0.0,0.0,80,0.00,,,0.00,meteohub,2013-04-01 04:41:00,
2013-03-31 23:45:00,59.5,53.4,-100.00,WNW,293,0.0,0.0,80,0.00,,,0.00,meteohub,2013-04-01 04:45:00,
2013-03-31 23:48:00,59.5,53.4,-100.00,WNW,293,0.0,0.0,80,0.00,,,0.00,meteohub,2013-04-01 04:48:00,
2013-03-31 23:49:00,59.4,53.2,-100.00,WNW,293,0.0,0.0,80,0.00,,,0.00,meteohub,2013-04-01 04:49:00,
2013-03-31 23:53:00,59.2,53.1,-100.00,WNW,293,0.0,0.0,80,0.00,,,0.00,meteohub,2013-04-01 04:53:00,
2013-03-31 23:55:00,59.2,53.1,-100.00,WNW,293,0.0,0.0,80,0.00,,,0.00,meteohub,2013-04-01 04:55:00,
2013-03-31 23:59:00,59.0,53.2,-100.00,WNW,293,0.0,0.0,81,0.00,,,0.00,meteohub,2013-04-01 04:59:00,